Time;durP1;ratioP1;P1;durP2;ratioP2;P2;SDS_P1;SDS_P2;PMS_P1;PMS_P2;Temp;Humidity;BMP_temperature;BMP_pressure;BME280_temperature;BME280_humidity;BME280_pressure;Samples;Min_cycle;Max_cycle;Signal;HPM_P1;HPM_P2
2023/02/23 00:01:36;;;;;;;12.95;5.22;;;;;;;-5.26;41.95;99177.59;5023321;28;20299;-65
2023/02/23 00:04:03;;;;;;;10.90;5.30;;;;;;;-5.25;42.22;99181.84;5039049;28;20052;-64
2023/02/23 00:06:32;;;;;;;10.00;5.00;;;;;;;-5.30;42.21;99187.25;5038570;28;20301;-65
2023/02/23 00:09:00;;;;;;;12.33;5.10;;;;;;;-5.49;42.20;99146.78;5038611;28;20793;-65
2023/02/23 00:11:26;;;;;;;10.17;5.13;;;;;;;-5.29;42.10;99178.56;5055456;28;20608;-65
2023/02/23 00:13:55;;;;;;;8.93;4.77;;;;;;;-5.21;42.19;99189.41;5038643;28;20283;-67
2023/02/23 00:16:24;;;;;;;11.97;5.20;;;;;;;-5.14;42.13;99197.72;5022596;28;20302;-63
2023/02/23 00:18:52;;;;;;;9.03;4.77;;;;;;;-5.17;42.08;99195.28;5005827;28;20335;-64
2023/02/23 00:21:22;;;;;;;11.47;5.37;;;;;;;-5.54;42.21;99195.28;5021996;28;20298;-65
2023/02/23 00:23:56;;;;;;;8.43;4.40;;;;;;;-5.06;42.35;99198.22;5021973;28;20844;-64
2023/02/23 00:26:24;;;;;;;9.80;5.27;;;;;;;-5.25;41.96;99194.78;5038769;28;20040;-64
2023/02/23 00:28:52;;;;;;;11.10;4.97;;;;;;;-5.26;42.26;99206.06;5038596;28;20314;-64
2023/02/23 00:31:26;;;;;;;8.90;5.10;;;;;;;-5.30;42.08;99195.00;5021482;28;20803;-64
2023/02/23 00:33:54;;;;;;;9.67;5.30;;;;;;;-5.28;42.10;99210.47;5039380;28;20286;-65
2023/02/23 00:36:23;;;;;;;11.57;5.60;;;;;;;-5.32;42.12;99202.00;5021660;28;20279;-64
2023/02/23 00:38:53;;;;;;;7.87;4.77;;;;;;;-5.24;42.33;99211.97;5005378;28;20298;-65
2023/02/23 00:41:22;;;;;;;10.15;5.57;;;;;;;-5.69;42.09;99207.16;5054700;28;20309;-65
2023/02/23 00:43:48;;;;;;;13.47;5.80;;;;;;;-5.57;42.28;99205.78;5022464;28;20137;-64
2023/02/23 00:46:21;;;;;;;9.87;5.47;;;;;;;-5.28;42.25;99208.72;5037455;28;20622;-65
2023/02/23 00:48:50;;;;;;;13.90;6.03;;;;;;;-5.53;42.35;99210.75;5038618;28;20294;-65
2023/02/23 00:51:17;;;;;;;13.27;5.10;;;;;;;-5.42;42.15;99220.59;5037898;28;20290;-65
2023/02/23 00:53:44;;;;;;;8.27;4.97;;;;;;;-5.44;42.24;99220.66;5021348;28;20298;-64
2023/02/23 00:56:13;;;;;;;7.60;4.60;;;;;;;-5.50;42.48;99214.91;5021332;28;20820;-64
2023/02/23 00:58:38;;;;;;;10.37;5.10;;;;;;;-5.82;42.15;99224.16;5037668;28;20299;-63
2023/02/23 01:01:07;;;;;;;9.90;5.50;;;;;;;-5.62;42.50;99202.56;5037558;28;20295;-64
2023/02/23 01:03:33;;;;;;;18.00;6.53;;;;;;;-5.75;42.43;99219.53;5021556;28;20426;-65
2023/02/23 01:06:03;;;;;;;10.37;6.03;;;;;;;-5.72;42.26;99225.38;5020969;28;20293;-65
2023/02/23 01:08:30;;;;;;;9.60;5.30;;;;;;;-5.83;42.08;99229.41;5037998;28;20778;-65
2023/02/23 01:10:56;;;;;;;8.67;4.93;;;;;;;-5.93;42.50;99222.94;5037887;28;20041;-65
2023/02/23 01:13:23;;;;;;;11.37;5.37;;;;;;;-5.75;42.72;99224.72;5037642;28;20325;-64
2023/02/23 01:15:51;;;;;;;11.20;5.47;;;;;;;-5.90;42.81;99227.97;5070725;28;20286;-64
2023/02/23 01:18:18;;;;;;;10.53;5.40;;;;;;;-5.81;42.87;99233.56;5021222;28;20369;-65
2023/02/23 01:20:45;;;;;;;8.90;4.90;;;;;;;-6.00;43.17;99234.47;5020796;28;20287;-64
2023/02/23 01:23:13;;;;;;;14.63;6.00;;;;;;;-5.94;43.27;99219.53;5037319;28;20758;-64
2023/02/23 01:25:41;;;;;;;10.80;5.87;;;;;;;-5.99;43.27;99233.53;5053403;28;20360;-64
2023/02/23 01:28:08;;;;;;;11.17;4.93;;;;;;;-6.02;43.32;99233.66;5037536;28;20290;-65
2023/02/23 01:30:38;;;;;;;12.93;5.33;;;;;;;-6.09;43.35;99238.25;5037580;28;20314;-65
2023/02/23 01:33:05;;;;;;;8.20;5.20;;;;;;;-6.28;43.39;99244.28;5037453;28;20341;-64
2023/02/23 01:35:35;;;;;;;12.73;5.80;;;;;;;-6.37;43.25;99244.66;5004854;28;20299;-64
2023/02/23 01:38:02;;;;;;;10.87;5.67;;;;;;;-6.30;43.41;99241.75;5021222;28;20290;-65
2023/02/23 01:40:29;;;;;;;11.40;5.87;;;;;;;-6.25;43.79;99244.13;5021400;28;20397;-64
2023/02/23 01:42:58;;;;;;;12.80;5.43;;;;;;;-6.04;43.71;99241.50;5020998;28;20291;-63
2023/02/23 01:45:34;;;;;;;10.00;5.30;;;;;;;-5.84;43.95;99238.91;5021224;28;20286;-63
2023/02/23 01:48:06;;;;;;;10.57;5.27;;;;;;;-5.98;44.04;99248.97;5054004;28;20287;-66
2023/02/23 01:51:05;;;;;;;14.47;5.33;;;;;;;-5.83;44.05;99244.91;5070648;28;20298;-64
2023/02/23 01:53:35;;;;;;;12.70;5.33;;;;;;;-6.05;43.83;99242.41;5020794;28;20777;-64
2023/02/23 01:56:15;;;;;;;9.10;5.22;;;;;;;-5.94;43.89;99242.78;5037051;28;20285;-64
2023/02/23 01:58:45;;;;;;;13.97;6.17;;;;;;;-6.14;43.86;99252.28;5037420;28;20102;-63
2023/02/23 02:01:12;;;;;;;10.00;5.47;;;;;;;-6.46;43.89;99245.88;5037148;28;20313;-63
2023/02/23 02:03:40;;;;;;;10.47;5.63;;;;;;;-6.27;44.01;99251.97;5055183;28;20285;-64
2023/02/23 02:06:08;;;;;;;6.37;4.43;;;;;;;-6.32;43.95;99256.47;5060458;28;20281;-64
2023/02/23 02:08:43;;;;;;;11.83;5.13;;;;;;;-6.34;43.93;99241.94;5060560;28;20282;-65
2023/02/23 02:11:29;;;;;;;8.87;5.27;;;;;;;-6.08;43.97;99252.88;5078179;28;20285;-64
2023/02/23 02:14:02;;;;;;;13.30;5.30;;;;;;;-6.24;43.81;99246.66;5062954;28;20372;-64
2023/02/23 02:16:38;;;;;;;12.43;5.63;;;;;;;-6.52;43.60;99256.47;5061293;28;20291;-62
2023/02/23 02:19:38;;;;;;;7.37;4.90;;;;;;;-6.06;43.92;99257.97;5020670;28;20302;-62
2023/02/23 02:22:28;;;;;;;10.70;4.00;;;;;;;-6.19;43.92;99224.06;4975527;28;20278;-64
2023/02/23 02:25:22;;;;;;;10.85;4.47;;;;;;;-6.08;43.97;99270.97;5021005;28;20052;-65
2023/02/23 02:28:07;;;;;;;11.97;5.60;;;;;;;-6.11;43.79;99257.31;5019558;28;20052;-66
2023/02/23 02:30:42;;;;;;;9.77;4.83;;;;;;;-6.19;43.96;99256.81;5053583;28;20751;-66
2023/02/23 02:33:47;;;;;;;11.47;4.97;;;;;;;-6.04;43.97;99266.53;5036931;28;20291;-63
2023/02/23 02:36:37;;;;;;;10.97;4.97;;;;;;;-6.02;43.87;99275.88;5020188;28;20291;-64
2023/02/23 02:39:35;;;;;;;11.35;5.05;;;;;;;-6.07;43.96;99271.78;5023817;28;20307;-65
2023/02/23 02:42:05;;;;;;;12.20;5.50;;;;;;;-6.71;43.60;99283.91;5009114;28;20067;-65
2023/02/23 02:44:48;;;;;;;7.63;5.30;;;;;;;-6.27;43.95;99282.16;5007906;28;20287;-67
2023/02/23 02:47:35;;;;;;;14.13;5.80;;;;;;;-6.12;44.06;99284.09;5040433;28;20315;-64
2023/02/23 02:50:15;;;;;;;11.33;5.20;;;;;;;-6.28;43.83;99293.38;5040518;28;20340;-62
2023/02/23 02:52:53;;;;;;;8.50;4.97;;;;;;;-6.31;44.14;99291.75;5023553;28;20302;-66
2023/02/23 02:55:25;;;;;;;13.80;5.47;;;;;;;-6.36;43.92;99290.25;5003491;28;20323;-66
2023/02/23 02:57:57;;;;;;;10.33;5.27;;;;;;;-6.43;44.09;99299.16;5020824;28;20407;-65
2023/02/23 04:18:13;;;;;;;9.47;4.70;;;;;;;-7.19;44.44;99332.22;5038644;28;20271;-64
2023/02/23 04:20:39;;;;;;;14.80;5.68;;;;;;;-7.66;44.69;99333.94;5022248;28;20290;-64
2023/02/23 04:23:06;;;;;;;9.10;5.30;;;;;;;-7.69;45.12;99331.47;5038881;28;20044;-62
2023/02/23 04:25:32;;;;;;;14.43;5.77;;;;;;;-7.71;45.02;99340.13;5038555;28;20291;-59
2023/02/23 04:27:58;;;;;;;11.33;5.90;;;;;;;-7.65;45.11;99338.19;5038565;28;20389;-60
2023/02/23 04:30:24;;;;;;;8.87;4.73;;;;;;;-7.72;45.03;99339.28;5021858;28;20283;-58
2023/02/23 04:32:54;;;;;;;6.80;4.53;;;;;;;-7.54;45.20;99330.94;5021795;28;20385;-61
2023/02/23 04:35:20;;;;;;;15.07;5.43;;;;;;;-7.66;45.13;99339.09;5072189;28;20378;-60
2023/02/23 04:37:47;;;;;;;8.77;5.57;;;;;;;-7.77;45.21;99345.50;5037961;28;20053;-59
2023/02/23 04:40:13;;;;;;;9.77;5.40;;;;;;;-7.91;45.20;99343.41;5021362;28;20279;-60
2023/02/23 04:42:40;;;;;;;11.73;5.40;;;;;;;-7.92;45.50;99343.47;5020395;28;20297;-61
2023/02/23 04:45:07;;;;;;;11.90;5.27;;;;;;;-7.74;45.26;99342.81;5021358;28;20296;-59
2023/02/23 04:47:33;;;;;;;11.70;5.30;;;;;;;-7.96;45.25;99342.72;5037691;28;20286;-59
2023/02/23 04:49:59;;;;;;;10.53;6.27;;;;;;;-7.96;45.57;99345.28;5003836;28;20286;-60
2023/02/23 04:52:25;;;;;;;11.20;5.83;;;;;;;-7.87;45.43;99344.97;5037747;28;20048;-60
2023/02/23 04:54:51;;;;;;;11.10;5.83;;;;;;;-7.84;45.29;99341.47;5021015;28;20318;-61
2023/02/23 04:57:17;;;;;;;9.37;5.07;;;;;;;-7.78;45.14;99352.38;5021365;28;20110;-61
2023/02/23 04:59:43;;;;;;;14.30;5.93;;;;;;;-7.81;44.88;99352.50;5036823;28;20385;-60
2023/02/23 05:02:10;;;;;;;10.80;6.03;;;;;;;-7.75;44.97;99338.56;5054456;28;20595;-58
2023/02/23 05:04:36;;;;;;;9.17;5.87;;;;;;;-7.69;44.94;99364.13;5038145;28;20286;-57
2023/02/23 05:07:03;;;;;;;10.77;5.60;;;;;;;-7.47;44.67;99365.06;5021199;28;20291;-60
2023/02/23 05:09:29;;;;;;;9.77;5.47;;;;;;;-7.53;44.81;99360.13;5021065;28;20044;-61
2023/02/23 05:11:55;;;;;;;12.60;5.63;;;;;;;-7.62;44.72;99374.19;5037511;28;20286;-59
2023/02/23 05:14:22;;;;;;;14.50;6.27;;;;;;;-7.49;44.62;99377.19;5037676;28;20765;-60
2023/02/23 05:16:48;;;;;;;13.00;5.83;;;;;;;-7.46;44.38;99377.06;5054128;28;20297;-60
2023/02/23 05:19:14;;;;;;;12.23;5.70;;;;;;;-7.43;44.33;99377.81;5037611;28;20360;-61
2023/02/23 05:21:40;;;;;;;8.20;4.83;;;;;;;-7.47;43.94;99393.41;5021165;28;20278;-61
2023/02/23 05:24:07;;;;;;;11.13;5.63;;;;;;;-7.31;44.07;99387.69;5021260;28;20386;-63
2023/02/23 05:26:33;;;;;;;9.20;5.40;;;;;;;-7.33;44.15;99388.63;5020994;28;20330;-59
2023/02/23 05:29:00;;;;;;;9.40;5.47;;;;;;;-7.31;44.10;99392.84;5020756;28;20738;-59
2023/02/23 05:31:27;;;;;;;9.53;5.37;;;;;;;-7.11;43.88;99385.25;5021089;28;20365;-60
2023/02/23 05:33:53;;;;;;;14.63;6.47;;;;;;;-7.32;43.40;99385.19;5021109;28;20309;-60
2023/02/23 05:36:20;;;;;;;8.63;5.17;;;;;;;-7.01;43.82;99380.56;5053854;28;20290;-59
2023/02/23 05:38:47;;;;;;;15.90;6.80;;;;;;;-7.20;43.73;99383.00;5037250;28;20395;-65
2023/02/23 05:41:16;;;;;;;13.00;5.93;;;;;;;-6.94;43.80;99389.78;5020923;28;20266;-67
2023/02/23 05:43:42;;;;;;;10.23;5.70;;;;;;;-7.10;43.80;99392.09;5021158;28;20305;-64
2023/02/23 05:46:14;;;;;;;13.73;6.20;;;;;;;-6.76;43.82;99367.63;5028385;28;20749;-62
2023/02/23 05:48:40;;;;;;;10.60;5.50;;;;;;;-6.93;43.32;99394.03;5030807;28;20300;-61
2023/02/23 05:51:12;;;;;;;8.37;5.33;;;;;;;-6.48;43.55;99397.50;5028929;28;20294;-66
2023/02/23 05:53:39;;;;;;;14.07;6.03;;;;;;;-6.64;43.04;99391.22;5021542;28;20052;-66
2023/02/23 05:56:06;;;;;;;10.83;5.17;;;;;;;-6.45;43.00;99399.09;5006031;28;20313;-66
2023/02/23 05:58:33;;;;;;;9.00;5.27;;;;;;;-6.41;42.90;99395.53;5028418;28;20278;-63
2023/02/23 06:00:59;;;;;;;9.60;5.17;;;;;;;-6.50;42.58;99401.88;5047015;28;20284;-61
2023/02/23 06:03:25;;;;;;;13.13;5.37;;;;;;;-6.43;42.41;99398.16;5045967;28;20287;-64
2023/02/23 06:05:53;;;;;;;11.40;4.83;;;;;;;-6.21;42.57;99405.91;5012454;28;20286;-66
2023/02/23 06:08:19;;;;;;;11.47;5.37;;;;;;;-6.36;42.33;99409.94;5039224;28;20324;-64
2023/02/23 06:10:46;;;;;;;11.37;5.47;;;;;;;-6.16;42.81;99407.41;5029571;28;20278;-66
2023/02/23 06:13:13;;;;;;;9.80;5.10;;;;;;;-6.03;42.38;99400.00;5041107;28;20306;-63
2023/02/23 06:15:39;;;;;;;10.73;5.40;;;;;;;-6.04;42.21;99406.09;5024824;28;20381;-61
2023/02/23 06:18:07;;;;;;;14.27;5.80;;;;;;;-5.87;41.94;99419.16;5024529;28;20333;-62
2023/02/23 06:20:42;;;;;;;11.47;5.73;;;;;;;-5.57;42.05;99410.13;5040885;28;20303;-63
2023/02/23 06:23:22;;;;;;;14.30;5.43;;;;;;;-5.72;41.68;99416.75;5042487;28;20290;-64
2023/02/23 06:25:48;;;;;;;10.23;5.13;;;;;;;-5.54;41.56;99422.94;5024276;28;20283;-64
2023/02/23 06:28:14;;;;;;;8.77;5.33;;;;;;;-5.37;41.20;99430.81;5024567;28;20052;-67
2023/02/23 06:30:40;;;;;;;14.20;5.43;;;;;;;-5.28;40.99;99399.38;5024308;28;20051;-63
2023/02/23 06:33:07;;;;;;;12.00;4.90;;;;;;;-5.11;40.62;99424.53;5007730;28;20306;-65
2023/02/23 06:35:33;;;;;;;10.80;5.47;;;;;;;-5.14;40.21;99430.69;5006385;28;20310;-63
2023/02/23 06:38:02;;;;;;;10.20;5.43;;;;;;;-5.06;40.10;99428.59;5024327;28;21028;-67
2023/02/23 06:40:29;;;;;;;13.83;5.40;;;;;;;-4.97;39.92;99417.84;5040392;28;20745;-64
2023/02/23 06:42:55;;;;;;;10.40;5.03;;;;;;;-4.77;39.62;99428.16;5038798;28;20706;-65
2023/02/23 06:45:21;;;;;;;11.30;5.83;;;;;;;-4.63;39.35;99422.34;5023988;28;20291;-65
2023/02/23 06:47:47;;;;;;;12.27;5.63;;;;;;;-4.40;39.16;99430.78;5040292;28;20291;-65
2023/02/23 06:50:14;;;;;;;19.70;5.57;;;;;;;-4.17;38.75;99438.31;5040734;28;20283;-64
2023/02/23 06:52:40;;;;;;;8.60;4.67;;;;;;;-4.05;38.53;99439.47;5023780;28;20064;-64
2023/02/23 06:55:07;;;;;;;10.10;4.67;;;;;;;-3.79;38.37;99445.13;5040073;28;20294;-66
2023/02/23 06:57:33;;;;;;;8.17;4.97;;;;;;;-3.77;38.00;99442.44;5040351;28;20407;-64
2023/02/23 07:00:00;;;;;;;12.00;5.57;;;;;;;-3.57;37.47;99444.91;5040238;28;20800;-65
2023/02/23 07:02:26;;;;;;;10.40;4.67;;;;;;;-3.39;37.29;99445.75;5023883;28;20109;-64
2023/02/23 07:04:52;;;;;;;7.30;4.63;;;;;;;-3.22;36.81;99454.38;5023414;28;20291;-63
2023/02/23 07:07:18;;;;;;;9.60;4.67;;;;;;;-2.89;36.33;99444.03;5023220;28;20043;-65
2023/02/23 07:09:44;;;;;;;12.30;5.20;;;;;;;-2.67;36.13;99452.38;5007391;28;20041;-65
2023/02/23 07:12:10;;;;;;;11.53;5.43;;;;;;;-2.51;35.44;99453.25;5023155;28;20049;-64
2023/02/23 07:14:39;;;;;;;11.93;5.63;;;;;;;-2.35;35.20;99441.09;5023354;28;20653;-64
2023/02/23 07:17:06;;;;;;;10.03;5.17;;;;;;;-2.08;35.20;99455.22;5040355;28;20056;-65
2023/02/23 07:19:32;;;;;;;10.27;5.10;;;;;;;-1.79;34.83;99462.25;5023253;28;20044;-64
2023/02/23 07:21:58;;;;;;;10.87;5.33;;;;;;;-1.19;34.06;99461.38;5023291;28;20502;-64
2023/02/23 07:24:24;;;;;;;10.93;4.97;;;;;;;0.63;32.71;99467.34;5038798;28;20351;-65
2023/02/23 07:26:50;;;;;;;11.97;5.43;;;;;;;3.61;28.90;99456.13;5007028;28;20530;-65
2023/02/23 07:29:17;;;;;;;11.17;5.17;;;;;;;6.83;25.51;99451.34;5040127;28;20443;-65
2023/02/23 07:31:43;;;;;;;13.00;5.07;;;;;;;9.58;22.40;99455.31;5023169;28;20044;-66
2023/02/23 07:34:09;;;;;;;10.43;4.85;;;;;;;11.63;19.96;99457.19;5006727;28;20455;-65
2023/02/23 07:36:35;;;;;;;9.20;5.32;;;;;;;13.40;17.85;99470.44;5023059;28;20036;-66
2023/02/23 07:39:02;;;;;;;9.80;5.10;;;;;;;14.85;16.79;99469.63;5022816;28;20075;-66
2023/02/23 07:41:28;;;;;;;11.50;5.25;;;;;;;15.94;15.24;99468.16;5055702;28;20056;-66
2023/02/23 07:43:53;;;;;;;10.27;5.10;;;;;;;17.01;14.57;99464.72;5023012;28;20082;-66
2023/02/23 07:46:19;;;;;;;12.77;5.60;;;;;;;17.98;13.37;99466.66;5022923;28;20450;-66
2023/02/23 07:48:45;;;;;;;10.75;5.47;;;;;;;18.55;13.04;99468.59;5023143;28;20135;-66
2023/02/23 07:51:12;;;;;;;10.10;5.32;;;;;;;18.88;12.48;99480.00;5039364;28;20044;-67
2023/02/23 07:53:39;;;;;;;11.02;5.50;;;;;;;18.66;12.71;99472.47;5006305;28;20048;-66
2023/02/23 07:56:07;;;;;;;9.43;5.65;;;;;;;18.76;12.21;99475.53;5022768;28;20434;-66
2023/02/23 07:58:33;;;;;;;13.48;6.88;;;;;;;18.96;12.06;99482.47;5006505;28;20113;-66
2023/02/23 08:00:59;;;;;;;9.13;5.35;;;;;;;19.30;11.54;99474.00;5022526;28;20502;-67
2023/02/23 08:03:25;;;;;;;10.55;5.78;;;;;;;19.98;11.44;99466.78;5006192;28;20044;-66
2023/02/23 08:05:52;;;;;;;10.73;6.05;;;;;;;20.91;10.70;99469.03;5022767;28;20040;-66
2023/02/23 08:08:18;;;;;;;9.43;5.40;;;;;;;21.56;10.36;99468.09;5022850;28;20063;-66
2023/02/23 08:10:44;;;;;;;14.02;6.13;;;;;;;22.34;9.83;99459.69;5022582;28;20036;-66
2023/02/23 08:13:10;;;;;;;9.55;5.90;;;;;;;23.01;9.49;99462.44;5006023;28;20549;-67
2023/02/23 08:15:36;;;;;;;9.93;6.03;;;;;;;23.51;9.14;99467.16;5038989;28;20456;-67
2023/02/23 08:18:04;;;;;;;10.05;6.30;;;;;;;23.79;8.82;99458.94;5022299;28;20051;-66
2023/02/23 08:20:29;;;;;;;8.90;5.97;;;;;;;23.95;8.89;99458.13;5006188;28;20041;-66
2023/02/23 08:22:56;;;;;;;10.40;6.82;;;;;;;24.47;8.23;99454.00;5038491;28;20062;-67
2023/02/23 08:25:23;;;;;;;9.77;5.57;;;;;;;24.87;8.18;99446.38;5005853;28;20186;-68
2023/02/23 08:27:52;;;;;;;7.90;5.65;;;;;;;24.91;8.00;99444.78;5022530;28;20044;-67
2023/02/23 08:30:24;;;;;;;8.00;5.85;;;;;;;25.53;7.66;99439.69;5055897;28;20528;-66
2023/02/23 08:32:49;;;;;;;11.23;6.03;;;;;;;25.61;7.29;99437.34;5038707;28;20037;-66
2023/02/23 08:35:18;;;;;;;7.22;5.55;;;;;;;26.10;7.38;99438.81;5005909;28;20108;-67
2023/02/23 08:37:44;;;;;;;7.80;5.68;;;;;;;26.44;6.96;99437.38;5022356;28;20044;-66
2023/02/23 08:40:14;;;;;;;9.80;5.80;;;;;;;26.90;6.85;99438.38;5022043;28;20483;-67
2023/02/23 08:42:44;;;;;;;13.67;5.73;;;;;;;26.84;6.56;99439.44;5055353;28;20044;-67
2023/02/23 08:45:10;;;;;;;23.58;14.65;;;;;;;26.62;6.58;99446.16;5021662;28;20556;-67
2023/02/23 08:47:36;;;;;;;13.55;6.68;;;;;;;26.62;6.58;99451.59;5021813;28;20049;-67
2023/02/23 08:50:04;;;;;;;9.27;5.55;;;;;;;26.60;6.37;99454.56;5005298;28;20066;-66
2023/02/23 08:52:30;;;;;;;7.57;5.60;;;;;;;26.54;6.28;99450.19;5054656;28;20044;-69
2023/02/23 08:54:56;;;;;;;11.68;5.30;;;;;;;26.63;6.15;99447.78;4998476;28;20667;-67
2023/02/23 08:57:22;;;;;;;9.30;5.90;;;;;;;26.62;6.53;99446.97;4982597;28;20052;-68
2023/02/23 08:59:48;;;;;;;9.02;5.90;;;;;;;27.25;6.35;99445.78;4982636;28;20045;-66
2023/02/23 09:02:14;;;;;;;7.43;5.60;;;;;;;27.47;6.30;99446.41;4998234;28;20124;-66
2023/02/23 09:04:40;;;;;;;8.10;6.10;;;;;;;27.56;5.81;99451.06;4998410;28;20041;-67
2023/02/23 09:07:08;;;;;;;6.78;5.22;;;;;;;27.77;5.80;99452.69;5015041;28;20115;-67
2023/02/23 09:09:34;;;;;;;10.05;5.68;;;;;;;27.71;5.77;99453.78;4998204;28;20140;-67
2023/02/23 09:12:00;;;;;;;6.90;5.20;;;;;;;27.95;5.84;99449.41;4998048;28;20544;-67
2023/02/23 09:14:27;;;;;;;7.88;5.50;;;;;;;28.13;5.56;99445.28;4982139;28;20144;-67
2023/02/23 09:16:52;;;;;;;9.30;5.82;;;;;;;28.39;5.67;99441.41;5014719;28;20045;-66
2023/02/23 09:19:19;;;;;;;9.50;5.93;;;;;;;28.67;5.51;99442.69;4998294;28;20149;-67
2023/02/23 09:21:45;;;;;;;10.65;6.38;;;;;;;28.86;5.38;99440.97;5030993;28;20046;-67
2023/02/23 09:24:10;;;;;;;9.35;5.65;;;;;;;28.78;5.36;99442.38;5030839;28;20207;-67
2023/02/23 09:26:38;;;;;;;9.57;6.43;;;;;;;28.80;5.18;99447.56;4998180;28;20520;-66
2023/02/23 09:29:05;;;;;;;8.68;6.57;;;;;;;28.89;5.37;99429.47;4998332;28;20053;-67
2023/02/23 09:31:32;;;;;;;10.05;5.65;;;;;;;29.01;5.16;99438.16;5014158;28;20087;-67
2023/02/23 09:34:01;;;;;;;10.57;5.60;;;;;;;29.12;4.98;99437.81;5014468;28;20057;-67
2023/02/23 09:36:28;;;;;;;8.23;5.60;;;;;;;29.14;5.09;99435.63;5014692;28;20482;-68
2023/02/23 09:38:56;;;;;;;7.30;5.35;;;;;;;29.29;5.02;99432.78;4998168;28;20103;-68
2023/02/23 09:41:24;;;;;;;9.52;5.50;;;;;;;29.91;5.00;99429.28;5014408;28;20489;-67
2023/02/23 09:44:07;;;;;;;7.30;5.18;;;;;;;30.27;4.58;99422.38;5014319;28;20403;-68
2023/02/23 09:47:05;;;;;;;9.50;5.00;;;;;;;30.23;4.51;99426.78;4999540;28;20131;-68
2023/02/23 09:49:33;;;;;;;9.23;4.93;;;;;;;30.21;4.82;99409.84;4990923;28;20045;-67
2023/02/23 09:52:00;;;;;;;9.30;5.78;;;;;;;30.03;4.67;99426.97;5002046;28;20045;-67
2023/02/23 09:54:31;;;;;;;10.25;5.57;;;;;;;30.33;4.58;99426.69;5046257;28;20057;-68
2023/02/23 09:56:59;;;;;;;10.27;6.73;;;;;;;29.41;4.98;99427.78;5038123;28;20037;-67
2023/02/23 09:59:27;;;;;;;10.77;5.85;;;;;;;28.53;5.01;99428.00;5038045;28;20781;-71
2023/02/23 10:02:07;;;;;;;9.18;5.80;;;;;;;28.62;5.00;99420.84;5005730;28;20468;-67
2023/02/23 10:04:39;;;;;;;8.55;5.80;;;;;;;28.56;5.01;99409.13;5037926;28;20388;-67
2023/02/23 10:07:24;;;;;;;7.22;5.47;;;;;;;28.32;4.85;99420.94;5021371;28;20048;-67
2023/02/23 10:09:59;;;;;;;8.57;5.93;;;;;;;28.19;5.17;99411.41;5037804;28;20044;-67
2023/02/23 10:12:46;;;;;;;10.00;5.72;;;;;;;28.31;5.16;99419.31;5038022;28;20547;-67
2023/02/23 10:15:15;;;;;;;8.23;5.75;;;;;;;28.09;5.23;99414.19;5021229;28;20143;-67
2023/02/23 10:17:47;;;;;;;9.07;5.93;;;;;;;28.45;5.28;99410.22;5037625;28;20049;-68
2023/02/23 10:20:17;;;;;;;10.38;6.18;;;;;;;28.32;5.34;99405.38;5037450;28;20072;-67
2023/02/23 10:22:43;;;;;;;10.20;6.17;;;;;;;28.38;4.94;99398.78;5037616;28;20274;-67
2023/02/23 10:25:12;;;;;;;8.73;5.53;;;;;;;27.57;4.93;99405.50;5021266;28;20559;-67
2023/02/23 10:27:47;;;;;;;10.50;5.40;;;;;;;27.58;5.21;99405.22;5004963;28;20041;-67
2023/02/23 10:30:20;;;;;;;9.43;5.80;;;;;;;27.37;5.57;99408.22;5037554;28;20033;-67
2023/02/23 10:32:55;;;;;;;14.40;9.82;;;;;;;27.67;5.56;99398.13;5004769;28;20048;-67
2023/02/23 10:35:22;;;;;;;12.25;6.85;;;;;;;27.77;5.40;99394.53;5020840;28;20052;-66
2023/02/23 10:37:49;;;;;;;17.30;9.07;;;;;;;28.30;5.30;99387.59;5037567;28;20135;-67
2023/02/23 10:40:20;;;;;;;14.38;9.15;;;;;;;28.06;5.13;99397.53;5053768;28;20049;-67
2023/02/23 10:42:46;;;;;;;;;;;;;;;27.56;5.01;99384.75;5037989;28;20067;-67
2023/02/23 10:45:23;;;;;;;10.35;6.50;;;;;;;25.34;5.54;99384.88;5053716;28;19920;-67
2023/02/23 10:48:03;;;;;;;10.90;6.18;;;;;;;24.01;6.47;99387.44;5005596;28;20044;-67
2023/02/23 10:50:30;;;;;;;9.93;6.20;;;;;;;23.20;6.74;99374.47;5020686;28;20041;-68
2023/02/23 10:53:19;;;;;;;9.30;5.97;;;;;;;23.08;7.07;99391.84;5037441;28;20507;-67
2023/02/23 10:55:46;;;;;;;10.30;6.30;;;;;;;21.77;7.46;99382.97;5020394;28;20055;-66
2023/02/23 10:58:18;;;;;;;17.55;6.85;;;;;;;21.83;7.68;99387.41;5002985;28;20053;-66
2023/02/23 11:01:13;;;;;;;11.68;6.25;;;;;;;21.97;7.74;99383.41;5020761;28;20457;-66
2023/02/23 11:03:44;;;;;;;10.00;6.18;;;;;;;22.35;7.53;99389.09;5050518;28;20076;-67
2023/02/23 11:06:29;;;;;;;10.80;6.45;;;;;;;22.88;7.30;99391.50;5020377;28;20127;-66
2023/02/23 11:08:55;;;;;;;9.25;6.13;;;;;;;22.80;7.07;99384.56;5004297;28;20045;-66
2023/02/23 11:11:30;;;;;;;19.48;8.60;;;;;;;23.28;6.99;99392.22;5003771;28;20044;-67
2023/02/23 11:13:56;;;;;;;14.27;7.85;;;;;;;23.23;7.05;99401.06;5020453;28;20048;-66
2023/02/23 11:16:27;;;;;;;11.77;7.40;;;;;;;23.42;6.72;99385.41;5020113;28;20094;-66
2023/02/23 11:18:56;;;;;;;17.17;8.65;;;;;;;22.35;7.14;99391.78;5036624;28;20040;-67
2023/02/23 11:21:25;;;;;;;16.00;7.60;;;;;;;22.17;7.53;99383.81;5036444;28;20045;-67
2023/02/23 11:23:53;;;;;;;12.85;6.60;;;;;;;22.29;7.58;99381.94;5036347;28;20102;-66
2023/02/23 11:26:37;;;;;;;11.85;6.00;;;;;;;22.51;7.16;99393.75;5020281;28;20056;-67
2023/02/23 11:29:15;;;;;;;8.60;5.47;;;;;;;22.55;7.64;99385.97;5019614;28;20055;-66
2023/02/23 11:31:47;;;;;;;18.73;6.03;;;;;;;22.32;7.30;99380.63;5052870;28;20101;-66
2023/02/23 11:34:21;;;;;;;13.05;6.78;;;;;;;22.44;7.15;99393.06;5036224;28;20056;-66
2023/02/23 11:36:59;;;;;;;10.68;6.28;;;;;;;22.48;7.55;99385.28;5020097;28;20052;-66
2023/02/23 11:39:25;;;;;;;10.50;5.70;;;;;;;20.94;7.85;99384.09;5036120;28;20529;-66
2023/02/23 11:42:16;;;;;;;10.82;5.72;;;;;;;20.97;7.74;99372.84;5019318;28;20503;-66
2023/02/23 11:44:43;;;;;;;;;;;;;;;21.10;7.77;99376.16;5053112;28;20037;-66
2023/02/23 11:47:19;;;;;;;10.20;5.72;;;;;;;20.81;8.25;99371.59;5019459;28;20003;-66
2023/02/23 11:49:46;;;;;;;9.27;5.65;;;;;;;20.12;8.20;99365.84;5019517;28;20127;-66
2023/02/23 11:52:21;;;;;;;10.35;5.68;;;;;;;19.88;8.44;99380.25;5003252;28;20033;-66
2023/02/23 11:54:55;;;;;;;10.90;6.13;;;;;;;19.49;8.89;99380.63;5019891;28;20056;-66
2023/02/23 11:57:33;;;;;;;13.45;5.78;;;;;;;19.06;8.99;99375.16;5019517;28;20048;-66
2023/02/23 12:00:01;;;;;;;11.40;5.55;;;;;;;18.88;9.18;99366.97;5019608;28;20098;-66
2023/02/23 12:02:50;;;;;;;11.73;5.75;;;;;;;18.33;9.38;99370.38;5037146;28;20041;-66
2023/02/23 12:05:21;;;;;;;9.60;5.78;;;;;;;17.53;10.08;99364.66;5003095;28;20139;-66
2023/02/23 12:07:47;;;;;;;9.30;5.78;;;;;;;16.09;10.48;99361.69;5002927;28;20091;-66
2023/02/23 12:10:20;;;;;;;12.07;5.85;;;;;;;15.21;11.34;99366.06;5035261;28;20076;-67
2023/02/23 12:12:58;;;;;;;10.13;5.30;;;;;;;13.15;11.88;99348.97;5019079;28;20049;-66
2023/02/23 12:15:29;;;;;;;10.57;5.10;;;;;;;11.47;13.62;99359.59;5035386;28;20531;-66
2023/02/23 12:17:59;;;;;;;10.30;5.63;;;;;;;9.95;14.39;99368.31;5035310;28;20044;-66
2023/02/23 12:20:30;;;;;;;8.07;5.30;;;;;;;8.59;15.86;99362.97;5035523;28;20515;-66
2023/02/23 12:23:00;;;;;;;13.60;5.75;;;;;;;7.97;16.67;99364.78;5018867;28;20080;-66
2023/02/23 12:25:41;;;;;;;11.15;5.50;;;;;;;7.65;17.33;99364.41;5018990;28;20472;-68
2023/02/23 12:28:20;;;;;;;12.27;5.40;;;;;;;7.37;17.85;99366.19;5018954;28;20481;-66
2023/02/23 12:30:50;;;;;;;20.97;9.10;;;;;;;6.57;18.38;99347.31;5035488;28;20052;-65
2023/02/23 12:33:32;;;;;;;9.63;5.35;;;;;;;6.26;18.50;99364.25;5018698;28;20045;-66
2023/02/23 12:36:03;;;;;;;7.53;4.57;;;;;;;5.86;18.97;99355.59;5035162;28;20048;-67
2023/02/23 12:38:35;;;;;;;7.87;4.63;;;;;;;5.50;19.65;99364.06;5052075;28;20049;-66
2023/02/23 12:41:11;;;;;;;11.73;4.93;;;;;;;5.39;19.67;99365.94;5018838;28;20041;-66
2023/02/23 12:43:58;;;;;;;9.57;4.23;;;;;;;4.92;20.55;99364.72;5018833;28;20496;-66
2023/02/23 12:46:27;;;;;;;11.50;4.73;;;;;;;4.64;20.74;99352.22;5002226;28;20041;-65
2023/02/23 12:49:15;;;;;;;11.27;5.53;;;;;;;4.64;21.21;99362.72;5018463;28;20044;-65
2023/02/23 12:51:57;;;;;;;10.00;4.90;;;;;;;4.51;21.44;99365.53;5051122;28;20048;-66
2023/02/23 12:54:23;;;;;;;11.00;5.07;;;;;;;3.85;21.56;99365.75;5018088;28;20053;-66
2023/02/23 12:57:18;;;;;;;9.30;5.10;;;;;;;3.96;22.38;99370.16;5034789;28;20107;-65
2023/02/23 13:00:08;;;;;;;11.47;5.00;;;;;;;3.61;22.55;99359.84;5034465;28;20055;-67
2023/02/23 13:02:48;;;;;;;12.17;5.70;;;;;;;3.35;23.66;99371.53;5034636;28;20075;-65
2023/02/23 13:05:23;;;;;;;13.00;4.87;;;;;;;3.28;23.79;99381.69;5034498;28;20040;-66